Aérodrome :
LOGIN :

S'inscrire | Disclaimer

   EN    FR    IT 

 










Légende :    VFR   VFR Marginal   IFR   IFR Intensif   IFR Très Intensif
Visi : 
Plafond : 
>= 8 km
>= 3000ft
5 à 8 km
1000 à 3000 ft
1500m à 5 km
500 à 1000 ft
800 à 1500m
200 à 500 ft
< 800m
< 200 ft
Symboles :   Orages  Brouillard  Fortes neiges  Fortes précipitations  Vent > 20 kt
SIGMETs :   Divers  Orages  Givrage  Turbulence  Onde Orograph.  Cendres Volcan.






- Altitude de l'aérodrome : 856 ft
- Code IATA : VGO


LEVX - Vigo Peinador

DERNIER METAR :
  • 150200Z 21014G24KT 9999 -DZ SCT016 BKN022 13/12 Q1011 TEMPO 3000 RA BKN010

METARs EXPIRÉS :
  • 150130Z 21015KT 9999 SCT016 BKN022 14/12 Q1011 TEMPO 3000 RA BKN010
  • 150100Z 21015KT 9000 -DZ BKN013 14/12 Q1011 TEMPO 3000 RA BKN010
  • 150030Z 21016KT 170V240 9999 -DZ BKN014 14/12 Q1012 REDZ TEMPO 3000 RA BKN010
  • 150000Z 21016G26KT 9000 DZ BKN015 14/12 Q1012 NOSIG
  • 142330Z 21015KT 170V230 9000 -DZ BKN015 13/12 Q1012 NOSIG
  • 142300Z 20015KT 160V230 9999 BKN019 14/11 Q1013 NOSIG

TAF TAF LEVX
Valide du 15 à 00h jusqu'au 16 à 00h UTC


142300Z 1500/1524 22009KT 8000 SCT005 BKN015 TX12/1500Z TN09/1506Z
TEMPO 1500/1518 3000 -RA
TEMPO 1500/1506 22015G25KT
TEMPO 1500/1506 24020G35KT
TEMPO 1500/1510 3000 RA BKN005
PROB40
TEMPO 1503/1508 1500 +RA BKN003
TEMPO 1503/1508 0350 BCFG VV001
TEMPO 1506/1512 29012KT



MET'MAP, la Météo Aéronautique d'un coup d'oeil ! - Copyright ORBIFLY Décembre 2007 - Disclaimer

ORBIFLY MET'MAP TEAM :

Programmation & Développement : Alexandra Zaïnal
Sur une idée originale de : Baudouin d'Aumeries
Assistance à la programmation : Marc-Olivier Méhu
Soutien technique & logistique : Manuel Goepfert

Contact : metmap@orbifly.com




SOURCES & CREDITS :

   NOAA